createdAt,value
2023-04-11T00:03:02.569Z,89.63
2023-04-11T00:08:05.954Z,90.09
2023-04-11T00:13:10.465Z,90.14
2023-04-11T00:18:13.907Z,90.09
2023-04-11T00:23:16.946Z,90.16
2023-04-11T00:28:19.972Z,90.82
2023-04-11T00:33:22.948Z,91.19
2023-04-11T00:38:25.942Z,91.20
2023-04-11T00:43:28.875Z,91.14
2023-04-11T00:48:32.417Z,91.21
2023-04-11T00:53:37.767Z,91.06
2023-04-11T00:58:41.938Z,91.01
2023-04-11T01:03:45.485Z,91.75
2023-04-11T01:08:50.347Z,93.25
2023-04-11T01:13:54.127Z,93.37
2023-04-11T01:18:57.689Z,93.02
2023-04-11T01:24:03.789Z,92.89
2023-04-11T01:29:06.823Z,92.91
2023-04-11T01:34:13.542Z,92.99
2023-04-11T01:39:16.553Z,92.98
2023-04-11T01:44:20.778Z,92.87
2023-04-11T01:49:25.953Z,93.12
2023-04-11T01:54:29.072Z,92.93
2023-04-11T01:59:32.176Z,92.96
2023-04-11T02:04:35.658Z,93.03
2023-04-11T02:09:38.546Z,93.18
2023-04-11T02:14:46.382Z,93.45
2023-04-11T02:19:49.955Z,93.29
2023-04-11T02:24:53.320Z,93.22
2023-04-11T02:29:56.278Z,93.42
2023-04-11T02:34:59.160Z,93.57
2023-04-11T02:40:04.453Z,93.71
2023-04-11T02:45:08.606Z,93.60
2023-04-11T02:50:11.623Z,93.20
2023-04-11T02:55:14.919Z,93.66
2023-04-11T03:00:20.298Z,93.69
2023-04-11T03:05:23.417Z,93.79
2023-04-11T03:10:26.316Z,94.22
2023-04-11T03:15:32.336Z,94.24
2023-04-11T03:20:35.437Z,94.68
2023-04-11T03:25:39.043Z,95.06
2023-04-11T03:30:43.583Z,95.29
2023-04-11T03:35:46.607Z,95.28
2023-04-11T03:40:49.790Z,95.59
2023-04-11T03:45:53.497Z,95.69
2023-04-11T03:50:56.865Z,96.21
2023-04-11T03:56:00.002Z,96.32
2023-04-11T04:01:03.142Z,96.26
2023-04-11T04:06:06.762Z,95.98
2023-04-11T04:11:09.624Z,96.00
2023-04-11T04:16:12.674Z,96.36
2023-04-11T04:21:16.743Z,96.29
2023-04-11T04:26:25.350Z,96.62
2023-04-11T04:31:29.986Z,97.07
2023-04-11T04:36:32.982Z,97.23
2023-04-11T04:41:36.502Z,97.51
2023-04-11T04:46:39.670Z,97.30
2023-04-11T04:51:42.639Z,97.54
2023-04-11T04:56:48.295Z,97.56
2023-04-11T05:01:51.877Z,97.41
2023-04-11T05:06:55.366Z,97.52
2023-04-11T05:11:58.384Z,97.74
2023-04-11T05:17:01.948Z,97.65
2023-04-11T05:22:05.010Z,96.83
2023-04-11T05:27:08.088Z,96.50
2023-04-11T05:32:11.137Z,96.15
2023-04-11T05:37:14.083Z,95.69
2023-04-11T05:42:18.010Z,95.40
2023-04-11T05:47:21.340Z,94.75
2023-04-11T05:52:24.189Z,94.50
2023-04-11T05:57:27.159Z,93.75
2023-04-11T06:02:30.560Z,92.24
2023-04-11T06:07:33.829Z,91.15
2023-04-11T06:12:37.032Z,90.05
2023-04-11T06:17:40.135Z,88.78
2023-04-11T06:22:46.484Z,87.88
2023-04-11T06:27:50.110Z,86.63
2023-04-11T06:32:53.219Z,85.59
2023-04-11T06:37:56.174Z,84.49
2023-04-11T06:43:01.043Z,83.70
2023-04-11T06:48:04.309Z,82.72
2023-04-11T06:53:07.323Z,80.59
2023-04-11T06:58:10.344Z,80.87
2023-04-11T07:03:15.164Z,79.43
2023-04-11T07:08:18.246Z,79.00
2023-04-11T07:13:21.489Z,77.82
2023-04-11T07:18:26.033Z,76.59
2023-04-11T07:23:29.205Z,74.68
2023-04-11T07:28:32.233Z,72.66
2023-04-11T07:33:37.054Z,69.06
2023-04-11T07:38:39.991Z,66.19
2023-04-11T07:43:43.117Z,64.85
2023-04-11T07:48:46.255Z,64.83
2023-04-11T07:53:49.252Z,65.34
2023-04-11T07:58:52.216Z,64.37
2023-04-11T08:03:56.725Z,62.92
2023-04-11T08:09:01.115Z,62.67
2023-04-11T08:14:04.066Z,62.84
2023-04-11T08:19:07.160Z,62.63
2023-04-11T08:24:10.796Z,61.55
2023-04-11T08:29:13.803Z,61.30
2023-04-11T08:34:16.902Z,61.16
2023-04-11T08:39:19.784Z,59.56
2023-04-11T08:44:23.037Z,57.83
2023-04-11T08:49:26.233Z,55.63
2023-04-11T08:54:30.473Z,55.77
2023-04-11T08:59:34.725Z,54.82
2023-04-11T09:04:42.771Z,52.94
2023-04-11T09:09:46.604Z,52.94
2023-04-11T09:14:49.612Z,53.15
2023-04-11T09:19:52.701Z,54.10
2023-04-11T09:25:05.880Z,53.11
2023-04-11T09:30:26.552Z,52.11
2023-04-11T09:35:29.630Z,51.10
2023-04-11T09:40:43.268Z,51.47
2023-04-11T09:45:54.075Z,49.22
2023-04-11T09:50:58.846Z,48.13
2023-04-11T09:56:02.352Z,46.43
2023-04-11T10:01:09.092Z,44.57
2023-04-11T10:06:31.501Z,43.31
2023-04-11T10:11:35.076Z,43.18
2023-04-11T10:17:23.977Z,43.65
2023-04-11T10:22:46.510Z,42.11
2023-04-11T10:27:54.776Z,42.13
2023-04-11T10:33:32.202Z,41.21
2023-04-11T10:38:41.184Z,40.09
2023-04-11T10:43:45.605Z,38.87
2023-04-11T10:49:03.317Z,40.50
2023-04-11T10:54:06.448Z,39.24
2023-04-11T10:59:31.471Z,36.63
2023-04-11T11:04:40.564Z,37.03
2023-04-11T11:09:51.381Z,34.34
2023-04-11T11:14:55.330Z,30.98
2023-04-11T11:19:58.402Z,30.03
2023-04-11T11:25:09.409Z,29.93
2023-04-11T11:30:13.471Z,29.78
2023-04-11T11:35:16.549Z,31.16
2023-04-11T11:40:22.257Z,31.41
2023-04-11T11:50:34.588Z,33.76
2023-04-11T11:55:37.636Z,32.23
2023-04-11T12:00:41.525Z,32.60
2023-04-11T12:05:45.113Z,32.59
2023-04-11T12:10:50.291Z,34.22
2023-04-11T12:15:56.393Z,35.86
2023-04-11T12:21:00.014Z,35.58
2023-04-11T12:26:02.811Z,36.21
2023-04-11T12:31:06.598Z,36.06
2023-04-11T12:36:10.552Z,34.76
2023-04-11T12:44:22.935Z,35.14
2023-04-11T12:46:36.719Z,35.91
2023-04-11T12:51:40.042Z,36.74
2023-04-11T12:56:43.013Z,37.85
2023-04-11T13:01:46.935Z,38.65
2023-04-11T13:06:52.434Z,39.97
2023-04-11T13:11:56.365Z,40.04
2023-04-11T13:16:59.466Z,39.92
2023-04-11T13:22:03.086Z,39.97
2023-04-11T13:27:06.227Z,40.59
2023-04-11T13:32:09.081Z,39.02
2023-04-11T13:37:12.272Z,37.92
2023-04-11T13:42:15.190Z,38.70
2023-04-11T13:47:18.028Z,39.48
2023-04-11T13:52:22.932Z,38.55
2023-04-11T13:57:25.912Z,37.60
2023-04-11T14:02:28.975Z,37.39
2023-04-11T14:07:32.205Z,38.93
2023-04-11T14:12:35.116Z,40.05
2023-04-11T14:17:38.172Z,40.64
2023-04-11T14:22:43.028Z,41.65
2023-04-11T14:27:46.366Z,42.24
2023-04-11T14:32:49.905Z,43.27
2023-04-11T14:37:53.208Z,44.66
2023-04-11T14:42:59.637Z,46.19
2023-04-11T14:48:02.593Z,47.57
2023-04-11T14:53:05.958Z,49.46
2023-04-11T14:58:09.012Z,50.48
2023-04-11T15:03:12.436Z,52.38
2023-04-11T15:08:16.544Z,54.38
2023-04-11T15:13:20.572Z,56.75
2023-04-11T15:18:26.998Z,60.85
2023-04-11T15:23:29.705Z,66.55
2023-04-11T15:28:36.550Z,72.01
2023-04-11T15:33:39.859Z,76.50
2023-04-11T15:38:42.864Z,79.43
2023-04-11T15:43:45.837Z,82.89
2023-04-11T15:48:48.823Z,84.87
2023-04-11T15:53:51.835Z,86.63
2023-04-11T15:58:54.868Z,87.91
2023-04-11T16:03:58.151Z,89.17
2023-04-11T16:09:01.438Z,90.25
2023-04-11T16:14:04.344Z,90.39
2023-04-11T16:19:07.985Z,90.76
2023-04-11T16:24:10.988Z,90.81
2023-04-11T16:29:14.040Z,91.01
2023-04-11T16:34:17.805Z,91.07
2023-04-11T16:39:21.138Z,91.09
2023-04-11T16:44:24.147Z,90.87
2023-04-11T16:49:27.129Z,91.07
2023-04-11T16:54:30.410Z,91.03
2023-04-11T16:59:33.390Z,91.11
2023-04-11T17:04:36.499Z,91.09
2023-04-11T17:09:41.454Z,90.81
2023-04-11T17:14:45.760Z,90.24
2023-04-11T17:19:48.780Z,90.07
2023-04-11T17:24:51.830Z,89.56
2023-04-11T17:29:54.954Z,89.29
2023-04-11T17:34:57.954Z,88.62
2023-04-11T17:40:01.030Z,88.33
2023-04-11T17:45:16.601Z,88.36
2023-04-11T17:50:21.373Z,88.60
2023-04-11T17:55:24.478Z,89.12
2023-04-11T18:00:30.246Z,89.75
2023-04-11T18:05:39.236Z,89.47
2023-04-11T18:10:42.768Z,89.17
2023-04-11T18:15:45.584Z,88.04
2023-04-11T18:20:48.745Z,88.15
2023-04-11T18:25:52.326Z,87.99
2023-04-11T18:30:55.497Z,87.83
2023-04-11T18:35:59.716Z,87.18
2023-04-11T18:41:06.837Z,86.01
2023-04-11T18:46:10.891Z,86.27
2023-04-11T18:51:16.585Z,86.36
2023-04-11T18:56:19.781Z,86.31
2023-04-11T19:01:22.968Z,86.07
2023-04-11T19:06:26.210Z,85.60
2023-04-11T19:11:29.132Z,84.98
2023-04-11T19:16:36.230Z,84.49
2023-04-11T19:21:39.475Z,84.46
2023-04-11T19:26:48.040Z,84.20
2023-04-11T19:31:51.254Z,84.57
2023-04-11T19:36:54.350Z,84.95
2023-04-11T19:41:57.825Z,85.16
2023-04-11T19:47:00.918Z,85.09
2023-04-11T19:52:04.048Z,85.02
2023-04-11T19:57:07.543Z,84.60
2023-04-11T20:02:10.716Z,84.69
2023-04-11T20:07:13.749Z,84.04
2023-04-11T20:12:16.794Z,84.84
2023-04-11T20:17:19.904Z,85.08
2023-04-11T20:22:23.409Z,84.93
2023-04-11T20:27:28.272Z,84.31
2023-04-11T20:32:31.244Z,83.81
2023-04-11T20:37:35.440Z,83.52
2023-04-11T20:42:42.778Z,82.87
2023-04-11T20:47:47.911Z,82.74
2023-04-11T20:52:52.371Z,82.52
2023-04-11T20:57:55.442Z,81.45
2023-04-11T21:02:58.998Z,80.68
2023-04-11T21:08:02.047Z,79.76
2023-04-11T21:13:05.641Z,79.19
2023-04-11T21:18:11.550Z,79.48
2023-04-11T21:23:14.633Z,79.79
2023-04-11T21:28:17.642Z,80.07
2023-04-11T21:33:21.288Z,80.06
2023-04-11T21:38:24.469Z,80.01
2023-04-11T21:43:28.584Z,80.27
2023-04-11T21:48:31.625Z,81.33
2023-04-11T21:53:37.258Z,82.08
2023-04-11T21:58:40.384Z,83.90
2023-04-11T22:03:44.169Z,85.43
2023-04-11T22:08:51.432Z,85.98
2023-04-11T22:13:54.447Z,86.22
2023-04-11T22:19:00.899Z,85.86
2023-04-11T22:24:04.446Z,86.20
2023-04-11T22:29:07.649Z,86.18
2023-04-11T22:34:11.078Z,86.65
2023-04-11T22:39:15.417Z,86.49
2023-04-11T22:44:18.977Z,86.20
2023-04-11T22:49:21.795Z,85.66
2023-04-11T22:54:27.845Z,84.98
2023-04-11T22:59:31.151Z,84.61
2023-04-11T23:04:34.209Z,84.45
2023-04-11T23:09:37.514Z,84.55
2023-04-11T23:14:40.634Z,84.38
2023-04-11T23:19:43.647Z,83.53
2023-04-11T23:24:47.512Z,82.89
2023-04-11T23:29:52.794Z,82.49
2023-04-11T23:34:55.851Z,81.94
2023-04-11T23:39:59.808Z,81.89
2023-04-11T23:45:06.684Z,81.83
2023-04-11T23:50:10.854Z,81.71
2023-04-11T23:55:14.381Z,81.78
